Time;durP1;ratioP1;P1;durP2;ratioP2;P2;SDS_P1;SDS_P2;PMS_P1;PMS_P2;Temp;Humidity;BMP_temperature;BMP_pressure;BME280_temperature;BME280_humidity;BME280_pressure;Samples;Min_cycle;Max_cycle;Signal;HPM_P1;HPM_P2
2023/06/28 00:01:50;;;;;;;2.55;0.65;;;23.30;54.10;;;;;;4973406;28;20478;-56
2023/06/28 00:04:15;;;;;;;1.83;0.70;;;23.40;54.20;;;;;;4975605;28;20039;-56
2023/06/28 00:06:41;;;;;;;2.38;0.60;;;23.30;54.10;;;;;;4977292;28;20043;-56
2023/06/28 00:09:06;;;;;;;1.58;0.55;;;23.30;54.10;;;;;;4976337;28;20042;-56
2023/06/28 00:11:32;;;;;;;1.30;0.50;;;23.30;54.20;;;;;;4976448;28;20046;-56
2023/06/28 00:13:57;;;;;;;1.58;0.55;;;23.40;54.30;;;;;;4976634;28;20145;-55
2023/06/28 00:16:23;;;;;;;1.48;0.50;;;23.30;54.30;;;;;;4975740;28;20053;-56
2023/06/28 00:18:49;;;;;;;1.83;0.45;;;23.30;54.30;;;;;;4976352;28;20475;-55
2023/06/28 00:21:14;;;;;;;1.75;0.70;;;23.30;54.30;;;;;;4977333;28;20055;-55
2023/06/28 00:23:40;;;;;;;2.17;0.60;;;23.40;54.30;;;;;;4976991;28;20533;-55
2023/06/28 00:26:06;;;;;;;1.58;0.47;;;23.30;54.40;;;;;;4974909;28;20042;-56
2023/06/28 00:28:32;;;;;;;2.08;0.75;;;23.40;54.40;;;;;;4976991;28;20054;-56
2023/06/28 00:30:58;;;;;;;2.30;0.50;;;23.30;54.40;;;;;;4976581;28;20058;-55
2023/06/28 00:33:23;;;;;;;2.65;0.63;;;23.30;54.40;;;;;;4976227;28;20250;-55
2023/06/28 00:35:49;;;;;;;2.13;0.57;;;23.40;54.40;;;;;;4976394;28;20047;-55
2023/06/28 00:38:14;;;;;;;0.70;0.40;;;23.30;54.40;;;;;;4976542;28;20051;-56
2023/06/28 00:40:40;;;;;;;1.58;0.55;;;23.30;54.50;;;;;;4975881;28;20406;-55
2023/06/28 00:43:06;;;;;;;1.48;0.43;;;23.30;54.50;;;;;;4976567;28;20928;-55
2023/06/28 00:45:32;;;;;;;1.70;0.60;;;23.30;54.50;;;;;;4976716;28;20047;-55
2023/06/28 00:47:57;;;;;;;2.45;0.70;;;23.30;54.50;;;;;;4975789;28;20045;-55
2023/06/28 00:50:23;;;;;;;1.17;0.73;;;23.30;54.50;;;;;;4976652;28;20035;-55
2023/06/28 00:52:49;;;;;;;1.77;0.52;;;23.30;54.50;;;;;;4974853;28;20363;-56
2023/06/28 00:55:15;;;;;;;2.30;0.73;;;23.30;54.60;;;;;;4974687;28;20049;-56
2023/06/28 00:57:40;;;;;;;1.67;0.70;;;23.30;54.60;;;;;;4976482;28;20398;-56
2023/06/28 01:00:11;;;;;;;1.65;0.60;;;23.30;54.60;;;;;;4974343;28;20465;-56
2023/06/28 01:02:41;;;;;;;1.58;0.52;;;23.30;54.60;;;;;;4976637;28;20058;-56
2023/06/28 01:05:08;;;;;;;1.92;0.70;;;23.30;54.70;;;;;;4976215;28;20043;-56
2023/06/28 01:07:35;;;;;;;1.83;0.50;;;23.30;54.70;;;;;;4975625;28;20105;-56
2023/06/28 01:10:00;;;;;;;1.20;0.60;;;23.20;54.60;;;;;;4975587;28;20394;-56
2023/06/28 01:12:26;;;;;;;0.80;0.60;;;23.20;54.70;;;;;;4975128;28;20047;-56
2023/06/28 01:14:51;;;;;;;1.73;0.55;;;23.30;54.70;;;;;;4972557;28;20035;-56
2023/06/28 01:17:17;;;;;;;1.13;0.45;;;23.20;54.70;;;;;;4975845;28;20553;-56
2023/06/28 01:19:43;;;;;;;1.95;0.50;;;23.30;54.80;;;;;;4974841;28;20491;-56
2023/06/28 01:22:09;;;;;;;2.03;0.68;;;23.20;54.70;;;;;;4974015;28;20133;-56
2023/06/28 01:24:36;;;;;;;2.03;0.65;;;23.20;54.70;;;;;;4975036;28;20046;-55
2023/06/28 01:27:02;;;;;;;1.52;0.70;;;23.20;54.80;;;;;;4974661;28;20157;-55
2023/06/28 01:29:27;;;;;;;0.80;0.50;;;23.20;54.80;;;;;;4974071;28;20051;-56
2023/06/28 01:31:56;;;;;;;1.63;0.60;;;23.20;54.80;;;;;;4974298;28;20368;-56
2023/06/28 01:34:26;;;;;;;2.13;0.73;;;23.20;54.80;;;;;;4975665;28;20145;-56
2023/06/28 01:36:53;;;;;;;1.23;0.55;;;23.20;54.80;;;;;;4974572;28;20059;-55
2023/06/28 01:39:19;;;;;;;2.07;0.90;;;23.20;54.90;;;;;;4975830;28;20051;-55
2023/06/28 01:41:45;;;;;;;1.02;0.50;;;23.20;54.90;;;;;;4986095;28;20050;-56
2023/06/28 01:44:10;;;;;;;2.30;0.63;;;23.20;54.90;;;;;;4973612;28;20042;-55
2023/06/28 01:46:36;;;;;;;1.17;0.70;;;23.20;54.90;;;;;;4974598;28;20098;-55
2023/06/28 01:49:01;;;;;;;2.80;0.63;;;23.20;54.90;;;;;;4974225;28;20063;-55
2023/06/28 01:51:27;;;;;;;1.35;0.50;;;23.20;54.90;;;;;;4974905;28;20470;-56
2023/06/28 01:53:53;;;;;;;2.40;0.60;;;23.20;54.90;;;;;;4974934;28;20138;-55
2023/06/28 01:56:18;;;;;;;1.73;0.55;;;23.20;55.00;;;;;;4974634;28;20051;-55
2023/06/28 01:58:44;;;;;;;1.75;0.68;;;23.20;55.00;;;;;;4975511;28;20059;-60
2023/06/28 02:01:09;;;;;;;2.20;0.60;;;23.20;55.00;;;;;;4974936;28;20075;-56
2023/06/28 02:03:35;;;;;;;1.00;0.50;;;23.20;55.00;;;;;;4973449;28;20080;-56
2023/06/28 02:06:01;;;;;;;2.17;0.73;;;23.20;55.00;;;;;;4973332;28;20126;-55
2023/06/28 02:08:26;;;;;;;1.27;0.68;;;23.20;55.10;;;;;;4974386;28;20050;-56
2023/06/28 02:10:52;;;;;;;1.23;0.60;;;23.20;55.10;;;;;;4973735;28;20090;-56
2023/06/28 02:13:17;;;;;;;2.03;0.63;;;23.20;55.10;;;;;;4974918;28;20039;-56
2023/06/28 02:15:43;;;;;;;1.67;0.70;;;23.10;55.00;;;;;;4975184;28;20068;-56
2023/06/28 02:18:09;;;;;;;1.35;0.60;;;23.10;55.10;;;;;;4973839;28;20455;-56
2023/06/28 02:20:34;;;;;;;2.33;0.77;;;23.10;55.10;;;;;;4975009;28;20050;-56
2023/06/28 02:23:00;;;;;;;1.70;0.60;;;23.10;55.10;;;;;;4974709;28;20402;-56
2023/06/28 02:25:25;;;;;;;1.15;0.45;;;23.10;55.20;;;;;;4973506;28;20042;-55
2023/06/28 02:27:51;;;;;;;1.50;0.52;;;23.10;55.10;;;;;;4974633;28;20068;-55
2023/06/28 02:30:18;;;;;;;1.25;0.52;;;23.20;55.20;;;;;;4974980;28;20039;-56
2023/06/28 02:32:44;;;;;;;2.22;0.70;;;23.10;55.20;;;;;;4974158;28;20048;-56
2023/06/28 02:35:09;;;;;;;2.70;0.60;;;23.10;55.20;;;;;;4974711;28;20053;-55
2023/06/28 02:37:35;;;;;;;1.98;0.80;;;23.10;55.20;;;;;;4974474;28;20069;-55
2023/06/28 02:40:02;;;;;;;1.33;0.60;;;23.10;55.30;;;;;;4973156;28;20043;-55
2023/06/28 02:42:28;;;;;;;1.23;0.50;;;23.10;55.30;;;;;;4974595;28;20051;-56
2023/06/28 02:44:53;;;;;;;2.15;0.80;;;23.10;55.20;;;;;;4973757;28;20396;-56
2023/06/28 02:47:19;;;;;;;1.83;0.70;;;23.10;55.30;;;;;;4973961;28;20078;-55
2023/06/28 02:49:44;;;;;;;2.28;0.80;;;23.10;55.30;;;;;;4974491;28;20042;-56
2023/06/28 02:52:11;;;;;;;1.10;0.60;;;23.10;55.30;;;;;;4973936;28;20053;-56
2023/06/28 02:54:37;;;;;;;1.98;0.50;;;23.10;55.30;;;;;;4973584;28;20070;-55
2023/06/28 02:57:03;;;;;;;2.28;0.70;;;23.10;55.30;;;;;;4974230;28;20105;-56
2023/06/28 02:59:28;;;;;;;2.05;0.70;;;23.10;55.30;;;;;;4972630;28;20407;-56
2023/06/28 03:01:54;;;;;;;2.60;0.75;;;23.10;55.30;;;;;;4973461;28;20506;-55
2023/06/28 03:04:19;;;;;;;2.05;0.50;;;23.00;55.30;;;;;;4974311;28;20054;-56
2023/06/28 03:06:52;;;;;;;1.10;0.60;;;23.10;55.30;;;;;;4973479;28;20074;-55
2023/06/28 03:09:17;;;;;;;1.27;0.50;;;23.10;55.40;;;;;;4974135;28;20042;-56
2023/06/28 03:11:43;;;;;;;1.33;0.63;;;23.00;55.30;;;;;;4974012;28;20051;-55
2023/06/28 03:14:09;;;;;;;1.58;0.65;;;23.10;55.40;;;;;;4972787;28;20070;-55
2023/06/28 03:16:34;;;;;;;3.35;0.80;;;23.10;55.40;;;;;;4973888;28;20072;-56
2023/06/28 03:19:00;;;;;;;1.63;0.65;;;23.00;55.30;;;;;;4973530;28;20039;-56
2023/06/28 03:21:25;;;;;;;2.10;0.77;;;23.00;55.40;;;;;;4973381;28;20038;-55
2023/06/28 03:23:51;;;;;;;2.10;0.70;;;23.00;55.40;;;;;;4973631;28;20074;-56
2023/06/28 03:26:16;;;;;;;1.50;0.50;;;23.00;55.40;;;;;;4973627;28;20043;-55
2023/06/28 03:28:42;;;;;;;1.77;0.70;;;23.00;55.40;;;;;;4972230;28;20039;-55
2023/06/28 03:31:08;;;;;;;1.40;0.70;;;23.00;55.50;;;;;;4973371;28;20130;-55
2023/06/28 03:33:33;;;;;;;1.00;0.50;;;23.00;55.50;;;;;;4973667;28;20045;-56
2023/06/28 03:35:59;;;;;;;1.98;0.80;;;23.00;55.50;;;;;;4972849;28;20042;-56
2023/06/28 03:38:24;;;;;;;1.92;0.70;;;23.00;55.50;;;;;;4972693;28;20090;-56
2023/06/28 03:40:50;;;;;;;0.90;0.50;;;23.00;55.60;;;;;;4973385;28;20043;-56
2023/06/28 03:43:16;;;;;;;1.27;0.52;;;23.00;55.50;;;;;;4972988;28;20046;-56
2023/06/28 03:45:41;;;;;;;2.03;0.70;;;23.00;55.60;;;;;;4973502;28;20367;-56
2023/06/28 03:48:07;;;;;;;1.60;0.70;;;23.00;55.60;;;;;;4973503;28;20548;-56
2023/06/28 03:50:32;;;;;;;1.40;0.70;;;23.00;55.60;;;;;;4972628;28;20053;-56
2023/06/28 03:52:58;;;;;;;3.67;0.93;;;23.00;56.40;;;;;;4972994;28;20043;-56
2023/06/28 03:55:23;;;;;;;1.48;0.70;;;23.00;55.60;;;;;;4973473;28;20105;-56
2023/06/28 03:57:49;;;;;;;1.88;0.70;;;23.00;55.70;;;;;;4972649;28;20043;-56
2023/06/28 04:00:15;;;;;;;2.28;0.98;;;23.00;55.70;;;;;;4973426;28;20056;-56
2023/06/28 04:02:41;;;;;;;2.50;0.70;;;23.00;55.70;;;;;;4980593;28;20069;-56
2023/06/28 04:05:07;;;;;;;1.35;0.60;;;23.00;55.70;;;;;;4981145;28;20050;-56
2023/06/28 04:07:32;;;;;;;2.88;0.80;;;23.00;55.70;;;;;;4992042;28;20045;-57
2023/06/28 04:09:59;;;;;;;2.22;0.70;;;23.00;55.80;;;;;;4991444;28;20050;-57
2023/06/28 04:12:24;;;;;;;2.58;0.90;;;22.90;55.70;;;;;;4992685;28;20050;-56
2023/06/28 04:14:50;;;;;;;1.40;0.75;;;22.90;56.40;;;;;;4992638;28;20066;-56
2023/06/28 04:17:15;;;;;;;1.45;0.57;;;22.90;55.80;;;;;;4992235;28;20114;-56
2023/06/28 04:19:41;;;;;;;2.15;0.85;;;22.90;55.80;;;;;;4992967;28;20078;-57
2023/06/28 04:22:07;;;;;;;2.42;0.60;;;22.90;55.80;;;;;;4992415;28;20085;-56
2023/06/28 04:24:32;;;;;;;1.73;0.70;;;22.90;55.80;;;;;;4992007;28;20050;-57
2023/06/28 04:27:00;;;;;;;1.83;0.75;;;22.90;55.80;;;;;;4992231;28;20057;-57
2023/06/28 04:29:27;;;;;;;1.95;0.90;;;22.90;55.80;;;;;;4992402;28;20050;-56
2023/06/28 04:31:53;;;;;;;1.65;0.70;;;22.90;55.80;;;;;;4991635;28;20054;-57
2023/06/28 04:34:19;;;;;;;3.10;1.02;;;22.90;55.90;;;;;;4992529;28;20049;-57
2023/06/28 04:36:45;;;;;;;1.20;0.70;;;22.90;55.80;;;;;;4992169;28;20054;-57
2023/06/28 04:39:14;;;;;;;2.72;0.82;;;22.90;55.90;;;;;;4991291;28;20477;-56
2023/06/28 04:41:40;;;;;;;2.42;0.90;;;22.90;55.90;;;;;;4992645;28;20052;-57
2023/06/28 04:44:09;;;;;;;1.25;0.60;;;22.90;56.00;;;;;;4992402;28;20051;-57
2023/06/28 04:46:35;;;;;;;1.50;0.70;;;22.90;55.90;;;;;;4991727;28;20057;-56
2023/06/28 04:49:00;;;;;;;1.85;0.73;;;22.90;55.90;;;;;;4992951;28;20046;-56
2023/06/28 04:51:27;;;;;;;2.45;0.80;;;22.90;56.00;;;;;;4995611;28;20081;-56
2023/06/28 04:53:53;;;;;;;2.28;0.93;;;22.90;56.00;;;;;;4995165;28;20046;-57
2023/06/28 04:56:18;;;;;;;2.20;0.95;;;22.90;56.10;;;;;;4996176;28;20043;-57
2023/06/28 04:58:44;;;;;;;1.23;0.68;;;22.90;56.10;;;;;;4995895;28;20049;-56
2023/06/28 05:01:09;;;;;;;1.40;0.85;;;22.90;56.10;;;;;;4994889;28;20082;-56
2023/06/28 05:03:35;;;;;;;2.22;0.80;;;22.90;56.10;;;;;;4995837;28;20076;-56
2023/06/28 05:06:06;;;;;;;2.70;1.08;;;22.90;56.20;;;;;;4995347;28;20077;-56
2023/06/28 05:08:32;;;;;;;1.85;0.70;;;22.90;56.20;;;;;;4995936;28;20046;-56
2023/06/28 05:11:01;;;;;;;2.15;0.70;;;22.90;56.30;;;;;;4993904;28;20043;-56
2023/06/28 05:13:26;;;;;;;1.55;0.70;;;22.90;56.20;;;;;;4995079;28;20057;-56
2023/06/28 05:15:52;;;;;;;1.58;0.73;;;22.90;56.20;;;;;;4995242;28;20034;-56
2023/06/28 05:18:18;;;;;;;1.40;0.82;;;22.80;56.20;;;;;;4995241;28;20042;-56
2023/06/28 05:20:44;;;;;;;1.90;0.73;;;22.90;56.20;;;;;;4994909;28;20078;-57
2023/06/28 05:23:11;;;;;;;2.00;0.63;;;22.80;56.20;;;;;;4995220;28;20038;-56
2023/06/28 05:25:38;;;;;;;1.80;0.60;;;22.90;56.30;;;;;;4993988;28;20050;-56
2023/06/28 05:28:04;;;;;;;3.40;0.90;;;22.80;56.20;;;;;;4990310;28;20061;-56
2023/06/28 05:30:30;;;;;;;1.40;0.70;;;22.80;56.30;;;;;;4984644;28;20043;-57
2023/06/28 05:32:55;;;;;;;1.65;0.60;;;22.80;56.20;;;;;;4977739;28;20045;-58
2023/06/28 05:35:21;;;;;;;1.58;0.85;;;22.80;56.30;;;;;;4994667;28;20435;-57
2023/06/28 05:37:46;;;;;;;1.98;0.70;;;22.80;56.30;;;;;;4994820;28;20061;-57
2023/06/28 05:40:12;;;;;;;2.22;0.70;;;22.80;56.30;;;;;;4995137;28;20045;-57
2023/06/28 05:42:38;;;;;;;2.40;0.90;;;22.80;56.30;;;;;;4994236;28;20446;-57
2023/06/28 05:45:05;;;;;;;4.93;1.10;;;22.80;56.60;;;;;;4994931;28;20041;-57
2023/06/28 05:47:30;;;;;;;1.55;0.73;;;22.80;56.80;;;;;;4994797;28;20046;-57
2023/06/28 05:49:56;;;;;;;3.08;1.10;;;22.80;56.70;;;;;;4993955;28;20145;-57
2023/06/28 05:52:21;;;;;;;5.13;0.95;;;22.80;56.90;;;;;;4995072;28;20042;-57
2023/06/28 05:54:47;;;;;;;3.95;0.70;;;22.80;57.00;;;;;;4994686;28;20545;-57
2023/06/28 05:57:13;;;;;;;2.50;0.80;;;22.90;57.10;;;;;;4994323;28;20042;-57
2023/06/28 05:59:38;;;;;;;2.25;0.65;;;22.90;57.20;;;;;;4994784;28;20042;-56
2023/06/28 06:02:04;;;;;;;2.58;0.80;;;22.90;57.40;;;;;;4993855;28;20056;-56
2023/06/28 06:04:30;;;;;;;3.38;0.70;;;22.90;57.40;;;;;;4994153;28;20073;-56
2023/06/28 06:06:55;;;;;;;4.43;0.88;;;22.90;57.40;;;;;;4994566;28;20497;-56
2023/06/28 06:09:21;;;;;;;3.22;0.85;;;22.90;57.40;;;;;;4994605;28;20129;-56
2023/06/28 06:11:46;;;;;;;2.35;0.93;;;22.90;57.40;;;;;;4993596;28;20105;-57
2023/06/28 06:14:12;;;;;;;3.70;0.98;;;22.90;57.40;;;;;;4994846;28;20046;-57
2023/06/28 06:16:38;;;;;;;5.72;1.20;;;22.90;57.40;;;;;;4993464;28;20478;-56
2023/06/28 06:19:03;;;;;;;1.67;0.93;;;22.90;57.40;;;;;;4979716;28;20043;-55
2023/06/28 06:21:29;;;;;;;4.10;0.90;;;22.90;57.40;;;;;;4974547;28;20078;-55
2023/06/28 06:23:54;;;;;;;6.70;1.05;;;22.90;57.60;;;;;;4973518;28;20046;-55
2023/06/28 06:26:20;;;;;;;3.38;1.23;;;22.90;57.60;;;;;;4974469;28;20038;-55
2023/06/28 06:28:46;;;;;;;4.03;1.10;;;22.90;57.70;;;;;;4974379;28;20053;-56
2023/06/28 06:31:13;;;;;;;3.08;1.00;;;23.00;57.90;;;;;;4973145;28;20046;-56
2023/06/28 06:33:40;;;;;;;2.67;0.90;;;22.90;57.90;;;;;;4974376;28;20046;-55
2023/06/28 06:36:05;;;;;;;2.55;0.80;;;23.00;58.00;;;;;;4974054;28;20181;-55
2023/06/28 06:38:31;;;;;;;3.95;1.15;;;23.00;58.00;;;;;;4973317;28;20050;-55
2023/06/28 06:40:56;;;;;;;2.10;0.82;;;23.00;58.00;;;;;;4973248;28;20046;-55
2023/06/28 06:43:22;;;;;;;4.88;0.80;;;23.00;58.00;;;;;;4974307;28;20554;-56
2023/06/28 06:45:48;;;;;;;1.80;0.73;;;23.00;58.00;;;;;;4985324;28;20030;-56
2023/06/28 06:48:13;;;;;;;3.47;0.95;;;23.00;58.00;;;;;;4989336;28;20565;-56
2023/06/28 06:50:39;;;;;;;4.03;0.80;;;23.00;58.00;;;;;;4982762;28;20042;-56
2023/06/28 06:53:05;;;;;;;2.88;1.30;;;23.00;58.10;;;;;;4991595;28;20050;-56
2023/06/28 06:55:32;;;;;;;4.72;1.15;;;23.00;58.20;;;;;;4992732;28;20398;-56
2023/06/28 06:57:57;;;;;;;4.47;0.90;;;23.00;58.20;;;;;;4993265;28;20100;-56
2023/06/28 07:00:23;;;;;;;7.57;1.42;;;23.00;58.30;;;;;;4992909;28;20050;-56
2023/06/28 07:02:49;;;;;;;3.50;0.80;;;23.00;58.40;;;;;;4993339;28;20081;-56
2023/06/28 07:05:15;;;;;;;3.78;1.00;;;23.00;58.50;;;;;;4993435;28;20494;-56
2023/06/28 07:07:41;;;;;;;3.83;1.00;;;23.00;58.60;;;;;;4993011;28;20078;-56
2023/06/28 07:10:07;;;;;;;2.72;1.00;;;23.00;58.60;;;;;;4993315;28;20182;-56
2023/06/28 07:12:34;;;;;;;3.03;0.90;;;23.00;58.60;;;;;;4992546;28;20078;-57
2023/06/28 07:15:00;;;;;;;3.90;1.10;;;23.00;58.60;;;;;;4992350;28;20038;-57
2023/06/28 07:17:25;;;;;;;4.97;1.05;;;23.00;58.60;;;;;;4993737;28;20378;-57
2023/06/28 07:19:51;;;;;;;4.30;1.45;;;23.00;58.50;;;;;;4992531;28;20039;-56
2023/06/28 07:22:16;;;;;;;2.88;0.90;;;23.00;58.60;;;;;;4993449;28;20046;-57
2023/06/28 07:24:42;;;;;;;3.50;1.13;;;23.00;58.60;;;;;;4993175;28;20034;-57
2023/06/28 07:27:08;;;;;;;3.22;0.90;;;23.00;58.60;;;;;;4991860;28;20551;-56
2023/06/28 07:29:33;;;;;;;4.20;1.27;;;23.00;58.50;;;;;;4993085;28;20049;-57
2023/06/28 07:31:59;;;;;;;5.65;1.17;;;23.00;58.50;;;;;;4992822;28;20402;-57
2023/06/28 07:34:24;;;;;;;6.72;1.00;;;23.00;58.50;;;;;;4992431;28;20038;-56
2023/06/28 07:36:50;;;;;;;4.70;1.20;;;22.90;58.30;;;;;;4992455;28;20051;-56
2023/06/28 07:39:16;;;;;;;4.55;1.50;;;23.00;58.30;;;;;;4992963;28;20433;-56
2023/06/28 07:41:41;;;;;;;3.20;1.30;;;23.00;58.30;;;;;;4992015;28;20034;-57
2023/06/28 07:44:07;;;;;;;4.40;1.27;;;23.00;58.30;;;;;;4992516;28;20046;-57
2023/06/28 07:46:32;;;;;;;3.40;1.30;;;23.00;58.20;;;;;;4993141;28;20038;-57
2023/06/28 07:48:59;;;;;;;3.03;1.20;;;22.90;58.20;;;;;;4991884;28;20105;-56
2023/06/28 07:51:26;;;;;;;3.90;1.20;;;23.00;58.20;;;;;;4992755;28;20134;-57
2023/06/28 07:53:51;;;;;;;2.45;0.98;;;22.90;58.20;;;;;;4992729;28;20069;-56
2023/06/28 07:56:19;;;;;;;4.15;1.25;;;22.90;58.20;;;;;;4992313;28;20495;-56
2023/06/28 07:58:45;;;;;;;3.53;0.90;;;22.90;58.30;;;;;;4992826;28;20089;-56
2023/06/28 08:01:10;;;;;;;5.13;1.10;;;22.90;58.20;;;;;;4992455;28;20112;-56
2023/06/28 08:03:36;;;;;;;5.00;1.10;;;22.90;58.20;;;;;;4991957;28;20043;-56
2023/06/28 08:06:02;;;;;;;4.97;1.20;;;22.90;58.30;;;;;;4992656;28;20096;-56
2023/06/28 08:08:27;;;;;;;2.05;1.13;;;22.90;58.30;;;;;;4992902;28;20046;-56
2023/06/28 08:10:53;;;;;;;3.58;1.08;;;22.90;58.20;;;;;;4991326;28;20165;-56
2023/06/28 08:13:18;;;;;;;3.35;1.15;;;22.90;58.20;;;;;;4992649;28;20050;-56
2023/06/28 08:15:44;;;;;;;2.53;1.05;;;22.90;58.10;;;;;;4992706;28;20546;-56
2023/06/28 08:18:10;;;;;;;3.40;1.00;;;22.90;58.20;;;;;;4991764;28;20038;-56
2023/06/28 08:20:36;;;;;;;2.53;1.10;;;22.90;58.20;;;;;;4992615;28;20093;-56
2023/06/28 08:23:02;;;;;;;4.53;1.10;;;22.90;58.20;;;;;;4991606;28;20093;-56
2023/06/28 08:25:28;;;;;;;3.00;1.20;;;22.90;58.10;;;;;;4995631;28;20104;-56
2023/06/28 08:27:53;;;;;;;2.40;0.90;;;22.90;58.10;;;;;;4996015;28;20548;-56
2023/06/28 08:30:19;;;;;;;3.55;1.30;;;22.90;58.20;;;;;;4995631;28;20042;-56
2023/06/28 08:32:45;;;;;;;3.35;1.10;;;23.00;58.30;;;;;;4996363;28;20095;-56
2023/06/28 08:35:11;;;;;;;3.08;1.02;;;22.90;58.20;;;;;;4995764;28;20042;-56
2023/06/28 08:37:36;;;;;;;3.80;1.17;;;22.90;58.20;;;;;;4995312;28;20438;-56
2023/06/28 08:40:04;;;;;;;2.95;1.05;;;22.90;58.20;;;;;;4995771;28;20398;-56
2023/06/28 08:42:29;;;;;;;3.35;1.05;;;22.90;58.30;;;;;;4996276;28;20042;-56
2023/06/28 08:44:56;;;;;;;4.60;1.02;;;22.90;58.30;;;;;;4993954;28;20046;-55
2023/06/28 08:47:22;;;;;;;2.17;1.00;;;22.90;58.20;;;;;;4996289;28;20069;-56
2023/06/28 08:49:47;;;;;;;4.68;1.17;;;23.00;58.30;;;;;;4994229;28;20395;-56
2023/06/28 08:52:14;;;;;;;3.20;1.00;;;23.00;58.30;;;;;;4993937;28;20486;-56
2023/06/28 08:54:41;;;;;;;2.80;1.15;;;23.00;58.40;;;;;;4995798;28;20038;-56
2023/06/28 08:57:07;;;;;;;3.70;1.20;;;23.00;58.40;;;;;;4995611;28;20050;-56
2023/06/28 08:59:32;;;;;;;4.00;1.08;;;23.00;58.40;;;;;;4994946;28;20061;-56
2023/06/28 09:01:59;;;;;;;2.88;0.90;;;23.00;58.40;;;;;;4995384;28;20041;-56
2023/06/28 09:04:28;;;;;;;3.15;1.10;;;23.00;58.50;;;;;;4996047;28;20053;-56
2023/06/28 09:06:55;;;;;;;3.92;0.90;;;23.00;58.50;;;;;;4993391;28;20397;-58
2023/06/28 09:09:23;;;;;;;4.75;1.40;;;23.00;58.40;;;;;;4994757;28;20049;-57
2023/06/28 09:11:49;;;;;;;2.78;1.17;;;23.00;58.40;;;;;;4993635;28;20046;-56
2023/06/28 09:14:14;;;;;;;7.13;2.13;;;23.00;58.50;;;;;;4977190;28;20042;-56
2023/06/28 09:16:40;;;;;;;4.70;1.55;;;23.00;58.90;;;;;;4992907;28;20049;-59
2023/06/28 09:19:05;;;;;;;6.45;1.92;;;22.90;59.10;;;;;;4995435;28;20037;-57
2023/06/28 09:21:31;;;;;;;7.70;1.70;;;23.00;59.60;;;;;;4994199;28;20527;-56
2023/06/28 09:23:57;;;;;;;7.82;2.05;;;23.00;59.70;;;;;;4994128;28;20054;-56
2023/06/28 09:26:32;;;;;;;7.18;1.90;;;23.00;60.10;;;;;;4993988;28;20433;-56
2023/06/28 09:29:11;;;;;;;6.05;1.65;;;23.00;60.30;;;;;;4994977;28;20121;-56
2023/06/28 09:31:47;;;;;;;7.03;1.90;;;23.00;60.40;;;;;;4994721;28;20042;-56
2023/06/28 09:34:12;;;;;;;5.68;2.03;;;23.00;60.80;;;;;;4994483;28;20457;-56
2023/06/28 09:36:41;;;;;;;8.00;1.90;;;23.00;60.80;;;;;;4993752;28;20046;-56
2023/06/28 09:39:09;;;;;;;6.15;1.70;;;23.00;60.90;;;;;;4995113;28;20109;-56
2023/06/28 09:41:42;;;;;;;6.90;1.75;;;23.00;60.90;;;;;;4992880;28;20042;-56
2023/06/28 09:44:10;;;;;;;7.40;1.48;;;23.00;61.00;;;;;;4994848;28;20104;-56
2023/06/28 09:46:42;;;;;;;3.38;1.60;;;23.00;61.00;;;;;;4995094;28;20046;-56
2023/06/28 09:49:17;;;;;;;8.48;1.70;;;23.10;61.10;;;;;;4992997;28;20054;-56
2023/06/28 09:51:43;;;;;;;7.45;1.80;;;23.10;61.10;;;;;;4990710;28;20042;-55
2023/06/28 09:54:08;;;;;;;4.72;1.73;;;23.10;61.10;;;;;;4993339;28;20442;-55
2023/06/28 09:56:35;;;;;;;8.40;1.83;;;23.10;61.10;;;;;;4993019;28;20030;-55
2023/06/28 09:59:05;;;;;;;6.13;1.70;;;23.10;61.10;;;;;;4994051;28;20050;-55
2023/06/28 10:01:33;;;;;;;6.35;1.80;;;23.10;61.20;;;;;;4991669;28;20395;-56
2023/06/28 10:03:58;;;;;;;4.18;1.38;;;23.10;61.30;;;;;;4978008;28;20489;-57
2023/06/28 10:06:24;;;;;;;6.90;1.80;;;23.00;61.20;;;;;;4974203;28;20043;-57
2023/06/28 10:08:49;;;;;;;4.75;1.58;;;23.10;61.20;;;;;;4974046;28;20449;-57
2023/06/28 10:11:16;;;;;;;7.75;1.65;;;23.10;61.20;;;;;;4972121;28;20041;-56
2023/06/28 10:13:41;;;;;;;5.63;1.50;;;23.10;61.20;;;;;;4974501;28;20125;-56
2023/06/28 10:16:08;;;;;;;3.75;1.60;;;23.10;61.20;;;;;;4971826;28;20146;-56
2023/06/28 10:18:33;;;;;;;5.75;1.60;;;23.10;61.20;;;;;;4973357;28;20059;-58
2023/06/28 10:21:06;;;;;;;4.10;1.40;;;23.10;61.20;;;;;;4974719;28;20034;-57
2023/06/28 10:23:35;;;;;;;5.05;1.40;;;23.10;61.30;;;;;;4981377;28;20043;-57
2023/06/28 10:26:02;;;;;;;6.25;2.20;;;23.00;61.30;;;;;;4974666;28;20057;-57
2023/06/28 10:28:29;;;;;;;13.20;2.30;;;23.00;61.50;;;;;;4974702;28;20043;-57
2023/06/28 10:30:55;;;;;;;5.60;1.60;;;23.00;61.60;;;;;;4971785;28;20321;-57
2023/06/28 10:33:23;;;;;;;3.80;1.55;;;23.00;61.60;;;;;;4973460;28;20057;-57
2023/06/28 10:35:49;;;;;;;4.38;1.42;;;23.00;61.60;;;;;;4974239;28;20051;-57
2023/06/28 10:38:14;;;;;;;4.50;1.60;;;23.00;61.70;;;;;;4973758;28;20046;-56
2023/06/28 10:40:40;;;;;;;5.97;1.73;;;23.00;61.70;;;;;;4974706;28;20137;-58
2023/06/28 10:43:06;;;;;;;4.13;1.70;;;23.00;61.70;;;;;;4974429;28;20562;-58
2023/06/28 10:45:35;;;;;;;8.40;1.95;;;23.00;61.60;;;;;;4973560;28;20126;-57
2023/06/28 10:48:01;;;;;;;5.25;2.00;;;23.00;61.50;;;;;;4974020;28;20050;-57
2023/06/28 10:50:26;;;;;;;6.55;1.77;;;23.00;61.60;;;;;;4974388;28;20125;-57
2023/06/28 10:52:54;;;;;;;8.48;2.25;;;23.00;61.60;;;;;;4973097;28;20064;-58
2023/06/28 10:55:28;;;;;;;10.45;1.90;;;23.00;61.50;;;;;;4974440;28;20121;-58
2023/06/28 10:58:05;;;;;;;5.97;1.80;;;23.00;61.50;;;;;;4973386;28;20050;-59
2023/06/28 11:00:37;;;;;;;9.13;2.35;;;23.00;61.60;;;;;;4974527;28;20053;-59
2023/06/28 11:03:06;;;;;;;9.25;2.05;;;23.00;61.60;;;;;;4974115;28;20046;-59
2023/06/28 11:05:52;;;;;;;4.63;1.65;;;23.00;61.60;;;;;;4973614;28;20518;-59
2023/06/28 11:08:18;;;;;;;10.23;2.35;;;23.00;61.60;;;;;;4973124;28;20047;-59
2023/06/28 11:10:48;;;;;;;7.90;2.25;;;23.00;61.60;;;;;;4973943;28;20133;-59
2023/06/28 11:13:15;;;;;;;8.00;2.50;;;23.00;61.60;;;;;;4973525;28;20067;-59
2023/06/28 11:15:50;;;;;;;8.48;2.58;;;23.00;61.70;;;;;;4972571;28;20047;-59
2023/06/28 11:18:18;;;;;;;7.85;2.47;;;23.00;61.70;;;;;;4974112;28;20043;-57
2023/06/28 11:20:47;;;;;;;12.50;2.92;;;23.00;61.70;;;;;;4992006;28;20118;-57
2023/06/28 11:23:34;;;;;;;13.30;3.10;;;23.00;61.80;;;;;;4988774;28;20038;-57
2023/06/28 11:26:02;;;;;;;13.80;3.08;;;23.00;61.80;;;;;;4972247;28;20402;-57
2023/06/28 11:28:28;;;;;;;12.05;3.33;;;23.00;62.40;;;;;;4972266;28;20071;-57
2023/06/28 11:30:54;;;;;;;10.25;2.92;;;23.00;61.70;;;;;;4972706;28;20043;-57
2023/06/28 11:33:23;;;;;;;9.07;3.20;;;23.00;61.60;;;;;;4972740;28;20093;-58
2023/06/28 11:35:49;;;;;;;7.97;2.80;;;22.90;61.50;;;;;;4971836;28;20039;-64
2023/06/28 11:38:15;;;;;;;7.10;2.65;;;22.90;61.40;;;;;;4956284;28;20491;-60
2023/06/28 11:40:40;;;;;;;9.18;2.75;;;22.90;61.30;;;;;;4973213;28;20046;-60
2023/06/28 11:43:08;;;;;;;6.97;2.67;;;22.90;61.20;;;;;;4967179;28;20121;-60
2023/06/28 11:45:35;;;;;;;;;;;22.90;61.10;;;;;;4988983;28;20482;-59
2023/06/28 11:48:00;;;;;;;9.75;3.08;;;22.90;60.90;;;;;;4989697;28;19976;-60
2023/06/28 11:50:26;;;;;;;8.18;2.65;;;22.90;61.10;;;;;;4990644;28;20046;-60
2023/06/28 11:52:52;;;;;;;9.02;2.90;;;22.90;61.20;;;;;;4975086;28;20375;-60
2023/06/28 11:55:17;;;;;;;7.85;3.22;;;22.90;61.20;;;;;;4992112;28;20092;-60
2023/06/28 11:57:44;;;;;;;10.15;3.30;;;22.90;61.20;;;;;;4992176;28;20045;-59
2023/06/28 12:00:12;;;;;;;9.60;3.15;;;22.90;61.20;;;;;;4997551;28;20038;-59
2023/06/28 12:02:47;;;;;;;8.18;3.30;;;22.90;61.20;;;;;;4995584;28;20049;-59
2023/06/28 12:05:12;;;;;;;10.73;3.55;;;22.90;61.30;;;;;;4999143;28;20066;-59
2023/06/28 12:07:38;;;;;;;10.38;3.95;;;22.90;61.90;;;;;;4998959;28;20086;-59
2023/06/28 12:10:04;;;;;;;6.50;2.67;;;22.90;61.30;;;;;;4997964;28;20085;-59
2023/06/28 12:12:35;;;;;;;8.98;3.10;;;22.90;61.30;;;;;;4998837;28;20045;-59
2023/06/28 12:15:02;;;;;;;8.15;3.28;;;22.90;61.40;;;;;;4996674;28;20038;-59
2023/06/28 12:17:37;;;;;;;8.10;3.42;;;22.90;61.40;;;;;;4998050;28;20038;-59
2023/06/28 12:20:03;;;;;;;10.73;3.38;;;22.90;61.40;;;;;;4996649;28;20046;-59
2023/06/28 12:22:40;;;;;;;8.27;3.20;;;22.90;61.40;;;;;;4998184;28;20042;-59
2023/06/28 12:25:06;;;;;;;10.63;3.40;;;22.90;61.50;;;;;;4997012;28;20043;-59
2023/06/28 12:27:31;;;;;;;8.30;3.50;;;22.90;61.40;;;;;;4998520;28;20049;-60
2023/06/28 12:29:57;;;;;;;6.88;3.42;;;22.90;62.10;;;;;;4996221;28;20406;-60
2023/06/28 12:32:23;;;;;;;7.55;3.38;;;22.90;61.50;;;;;;4998707;28;20046;-60
2023/06/28 12:34:49;;;;;;;11.25;3.70;;;22.90;61.60;;;;;;4998805;28;20045;-58
2023/06/28 12:37:15;;;;;;;6.30;3.63;;;22.90;61.60;;;;;;4998188;28;20054;-58
2023/06/28 12:39:41;;;;;;;7.82;3.50;;;22.90;61.90;;;;;;4998941;28;20050;-58
2023/06/28 12:42:16;;;;;;;9.75;3.85;;;22.90;61.90;;;;;;4998712;28;20104;-58